createdAt,value
2023-04-10T00:00:37.328Z,39.50
2023-04-10T00:02:45.921Z,41.80
2023-04-10T00:04:54.638Z,40.00
2023-04-10T00:07:02.443Z,39.38
2023-04-10T00:09:09.375Z,41.40
2023-04-10T00:11:16.451Z,41.50
2023-04-10T00:13:23.477Z,45.83
2023-04-10T00:15:31.583Z,48.38
2023-04-10T00:17:38.474Z,46.50
2023-04-10T00:19:45.649Z,45.70
2023-04-10T00:21:54.510Z,45.88
2023-04-10T00:24:01.997Z,46.08
2023-04-10T00:26:09.332Z,43.53
2023-04-10T00:28:18.264Z,45.75
2023-04-10T00:30:25.600Z,47.28
2023-04-10T00:32:33.052Z,46.20
2023-04-10T00:34:40.261Z,46.35
2023-04-10T00:36:48.159Z,46.65
2023-04-10T00:38:56.934Z,45.97
2023-04-10T00:41:04.488Z,46.53
2023-04-10T00:43:11.906Z,48.88
2023-04-10T00:45:18.884Z,47.78
2023-04-10T00:47:26.043Z,48.03
2023-04-10T00:49:33.093Z,46.65
2023-04-10T00:51:40.897Z,47.05
2023-04-10T00:53:48.129Z,44.20
2023-04-10T00:55:58.018Z,45.40
2023-04-10T00:58:05.146Z,43.72
2023-04-10T01:00:13.459Z,41.30
2023-04-10T01:02:21.369Z,41.25
2023-04-10T01:04:32.244Z,40.20
2023-04-10T01:06:55.684Z,41.13
2023-04-10T01:09:08.857Z,38.30
2023-04-10T01:11:27.365Z,37.95
2023-04-10T01:13:44.678Z,39.13
2023-04-10T01:15:57.892Z,38.80
2023-04-10T01:18:10.399Z,39.40
2023-04-10T01:20:22.359Z,37.75
2023-04-10T01:22:33.782Z,39.58
2023-04-10T01:24:59.083Z,37.97
2023-04-10T01:27:28.689Z,36.20
2023-04-10T01:29:39.671Z,35.10
2023-04-10T01:32:04.833Z,34.97
2023-04-10T01:34:14.813Z,36.45
2023-04-10T01:36:27.418Z,36.05
2023-04-10T01:38:35.130Z,36.35
2023-04-10T01:40:49.718Z,34.67
2023-04-10T01:43:05.045Z,34.45
2023-04-10T01:45:26.559Z,33.95
2023-04-10T01:47:35.259Z,32.00
2023-04-10T01:49:45.584Z,33.70
2023-04-10T01:51:55.381Z,29.77
2023-04-10T01:54:04.624Z,33.78
2023-04-10T01:56:14.148Z,32.45
2023-04-10T01:58:24.863Z,36.20
2023-04-10T02:00:42.704Z,34.13
2023-04-10T02:02:50.642Z,33.45
2023-04-10T02:04:58.566Z,34.28
2023-04-10T02:07:09.066Z,33.75
2023-04-10T02:09:20.787Z,33.25
2023-04-10T02:11:37.188Z,33.47
2023-04-10T02:13:45.487Z,32.85
2023-04-10T02:15:57.996Z,31.92
2023-04-10T02:18:07.533Z,33.13
2023-04-10T02:20:15.858Z,32.40
2023-04-10T02:22:23.891Z,32.35
2023-04-10T02:24:31.994Z,32.10
2023-04-10T02:26:49.262Z,32.08
2023-04-10T02:28:56.254Z,31.98
2023-04-10T02:31:05.174Z,33.10
2023-04-10T02:33:12.914Z,31.98
2023-04-10T02:35:20.249Z,32.05
2023-04-10T02:37:27.476Z,32.15
2023-04-10T02:39:34.918Z,33.25
2023-04-10T02:41:42.614Z,33.97
2023-04-10T02:43:53.568Z,32.33
2023-04-10T02:46:07.935Z,32.28
2023-04-10T02:48:18.698Z,33.92
2023-04-10T02:50:33.300Z,34.13
2023-04-10T02:52:40.841Z,31.98
2023-04-10T02:54:48.538Z,32.45
2023-04-10T02:56:55.713Z,32.33
2023-04-10T02:59:02.686Z,33.53
2023-04-10T03:01:12.486Z,31.92
2023-04-10T03:03:23.366Z,32.72
2023-04-10T03:05:34.371Z,38.30
2023-04-10T03:07:41.556Z,33.70
2023-04-10T03:09:50.476Z,31.50
2023-04-10T03:11:57.505Z,34.75
2023-04-10T03:14:04.829Z,31.25
2023-04-10T03:16:13.722Z,30.08
2023-04-10T03:18:21.612Z,33.42
2023-04-10T03:20:31.910Z,31.35
2023-04-10T03:22:39.303Z,32.90
2023-04-10T03:24:48.377Z,32.83
2023-04-10T03:26:55.813Z,31.60
2023-04-10T03:29:03.223Z,31.08
2023-04-10T03:31:13.470Z,33.60
2023-04-10T03:33:22.960Z,31.95
2023-04-10T03:35:34.200Z,32.35
2023-04-10T03:37:43.355Z,30.83
2023-04-10T03:39:50.731Z,30.38
2023-04-10T03:41:57.606Z,29.75
2023-04-10T03:44:05.249Z,31.70
2023-04-10T03:46:14.279Z,30.38
2023-04-10T03:48:24.524Z,27.90
2023-04-10T03:50:32.217Z,27.50
2023-04-10T03:52:40.733Z,28.33
2023-04-10T03:54:52.984Z,27.92
2023-04-10T03:57:05.950Z,28.15
2023-04-10T03:59:13.185Z,26.85
2023-04-10T04:01:23.186Z,29.45
2023-04-10T04:03:41.667Z,25.85
2023-04-10T04:06:08.883Z,26.45
2023-04-10T04:08:23.644Z,27.05
2023-04-10T04:10:40.043Z,25.77
2023-04-10T04:13:05.799Z,28.83
2023-04-10T04:15:39.147Z,27.30
2023-04-10T04:18:19.195Z,26.67
2023-04-10T04:20:31.197Z,25.95
2023-04-10T04:23:04.149Z,26.80
2023-04-10T04:25:31.015Z,28.05
2023-04-10T04:27:59.757Z,25.83
2023-04-10T04:30:25.009Z,25.67
2023-04-10T04:32:53.850Z,25.48
2023-04-10T04:35:23.665Z,26.08
2023-04-10T04:37:50.844Z,25.77
2023-04-10T04:40:16.531Z,26.17
2023-04-10T04:42:55.875Z,27.20
2023-04-10T04:45:16.168Z,28.10
2023-04-10T04:47:41.869Z,26.58
2023-04-10T04:49:59.960Z,26.00
2023-04-10T04:52:38.018Z,23.83
2023-04-10T04:55:05.381Z,24.40
2023-04-10T04:57:32.725Z,24.70
2023-04-10T04:59:58.805Z,25.38
2023-04-10T05:02:25.023Z,24.25
2023-04-10T05:04:46.697Z,25.77
2023-04-10T05:07:08.522Z,25.08
2023-04-10T05:09:37.258Z,24.40
2023-04-10T05:12:16.595Z,24.50
2023-04-10T05:14:24.651Z,23.17
2023-04-10T05:16:49.439Z,25.70
2023-04-10T05:19:14.905Z,23.63
2023-04-10T05:21:36.415Z,22.88
2023-04-10T05:24:00.438Z,25.20
2023-04-10T05:26:32.201Z,22.70
2023-04-10T05:29:05.345Z,22.60
2023-04-10T05:31:33.068Z,22.25
2023-04-10T05:34:12.385Z,23.90
2023-04-10T05:36:32.800Z,23.73
2023-04-10T05:38:47.695Z,24.30
2023-04-10T05:41:15.201Z,21.88
2023-04-10T05:43:43.898Z,21.38
2023-04-10T05:46:05.847Z,23.25
2023-04-10T05:48:30.975Z,23.33
2023-04-10T05:51:03.955Z,24.60
2023-04-10T05:53:34.024Z,23.98
2023-04-10T05:56:00.435Z,22.60
2023-04-10T05:58:27.824Z,23.05
2023-04-10T06:01:02.690Z,21.65
2023-04-10T06:03:28.324Z,23.35
2023-04-10T06:05:38.865Z,23.00
2023-04-10T06:07:47.533Z,21.70
2023-04-10T06:09:55.280Z,23.55
2023-04-10T06:12:02.880Z,23.65
2023-04-10T06:14:10.563Z,24.15
2023-04-10T06:16:25.087Z,23.23
2023-04-10T06:18:32.372Z,22.25
2023-04-10T06:20:39.792Z,22.38
2023-04-10T06:22:46.916Z,23.85
2023-04-10T06:24:54.260Z,22.98
2023-04-10T06:27:01.176Z,23.63
2023-04-10T06:29:08.307Z,22.80
2023-04-10T06:31:15.657Z,22.98
2023-04-10T06:33:26.391Z,21.40
2023-04-10T06:35:34.136Z,23.75
2023-04-10T06:37:42.211Z,22.70
2023-04-10T06:39:49.443Z,23.08
2023-04-10T06:41:57.288Z,21.85
2023-04-10T06:44:13.762Z,21.88
2023-04-10T06:46:21.215Z,22.15
2023-04-10T06:48:29.944Z,21.83
2023-04-10T06:50:37.073Z,22.20
2023-04-10T06:52:43.898Z,23.27
2023-04-10T06:54:50.929Z,21.63
2023-04-10T06:56:59.744Z,22.27
2023-04-10T06:59:07.439Z,23.25
2023-04-10T07:01:14.600Z,22.40
2023-04-10T07:03:21.868Z,23.98
2023-04-10T07:05:30.470Z,22.95
2023-04-10T07:07:37.500Z,21.33
2023-04-10T07:09:44.831Z,21.98
2023-04-10T07:11:52.525Z,22.50
2023-04-10T07:13:59.814Z,23.05
2023-04-10T07:16:06.952Z,21.42
2023-04-10T07:18:14.275Z,22.55
2023-04-10T07:20:21.814Z,22.08
2023-04-10T07:22:30.791Z,22.83
2023-04-10T07:24:38.582Z,21.75
2023-04-10T07:26:45.411Z,23.48
2023-04-10T07:28:52.697Z,22.42
2023-04-10T07:31:00.239Z,22.30
2023-04-10T07:33:08.018Z,22.65
2023-04-10T07:35:15.271Z,21.52
2023-04-10T07:37:23.060Z,22.58
2023-04-10T07:39:31.928Z,22.85
2023-04-10T07:41:39.520Z,22.05
2023-04-10T07:43:47.109Z,21.85
2023-04-10T07:45:54.719Z,22.30
2023-04-10T07:48:01.698Z,22.33
2023-04-10T07:50:10.703Z,22.38
2023-04-10T07:52:17.837Z,21.90
2023-04-10T07:54:24.862Z,21.27
2023-04-10T07:56:33.838Z,23.00
2023-04-10T07:58:41.329Z,22.42
2023-04-10T08:00:48.575Z,22.35
2023-04-10T08:02:56.273Z,22.52
2023-04-10T08:05:03.839Z,22.55
2023-04-10T08:07:11.282Z,23.67
2023-04-10T08:09:18.717Z,23.80
2023-04-10T08:11:33.457Z,22.70
2023-04-10T08:13:41.987Z,21.85
2023-04-10T08:15:49.327Z,22.35
2023-04-10T08:17:56.679Z,21.63
2023-04-10T08:20:03.888Z,22.13
2023-04-10T08:22:10.817Z,22.30
2023-04-10T08:24:20.760Z,21.08
2023-04-10T08:26:28.713Z,23.08
2023-04-10T08:28:38.108Z,22.75
2023-04-10T08:30:45.213Z,22.60
2023-04-10T08:32:52.802Z,23.00
2023-04-10T08:35:00.049Z,22.73
2023-04-10T08:37:11.808Z,21.27
2023-04-10T08:39:19.328Z,21.92
2023-04-10T08:41:26.294Z,22.65
2023-04-10T08:43:33.794Z,23.10
2023-04-10T08:45:44.713Z,22.42
2023-04-10T08:47:54.213Z,22.88
2023-04-10T08:50:04.407Z,21.85
2023-04-10T08:52:16.584Z,21.20
2023-04-10T08:54:28.904Z,22.15
2023-04-10T08:56:38.028Z,22.42
2023-04-10T08:58:45.670Z,20.90
2023-04-10T09:00:55.827Z,21.02
2023-04-10T09:03:05.909Z,22.15
2023-04-10T09:05:15.898Z,21.30
2023-04-10T09:07:24.078Z,21.65
2023-04-10T09:09:33.456Z,20.90
2023-04-10T09:12:05.003Z,21.60
2023-04-10T09:14:24.694Z,21.77
2023-04-10T09:16:36.454Z,21.73
2023-04-10T09:18:48.227Z,21.63
2023-04-10T09:20:55.544Z,22.17
2023-04-10T09:23:03.391Z,22.17
2023-04-10T09:25:31.028Z,22.58
2023-04-10T09:27:41.107Z,21.63
2023-04-10T09:29:50.095Z,24.13
2023-04-10T09:31:59.213Z,23.10
2023-04-10T09:34:17.238Z,22.95
2023-04-10T09:36:24.697Z,22.48
2023-04-10T09:38:32.022Z,22.25
2023-04-10T09:40:39.104Z,23.00
2023-04-10T09:42:46.323Z,23.48
2023-04-10T09:44:59.702Z,23.70
2023-04-10T09:47:22.463Z,22.05
2023-04-10T09:49:29.791Z,22.70
2023-04-10T09:51:37.539Z,22.15
2023-04-10T09:53:53.344Z,22.92
2023-04-10T09:56:00.977Z,22.50
2023-04-10T09:58:09.044Z,22.15
2023-04-10T10:00:16.978Z,22.33
2023-04-10T10:02:27.393Z,21.92
2023-04-10T10:04:37.059Z,22.92
2023-04-10T10:06:44.532Z,23.55
2023-04-10T10:08:52.824Z,23.50
2023-04-10T10:11:03.613Z,21.65
2023-04-10T10:13:14.021Z,21.80
2023-04-10T10:15:28.528Z,22.63
2023-04-10T10:17:42.609Z,23.65
2023-04-10T10:19:56.918Z,22.73
2023-04-10T10:22:05.072Z,23.58
2023-04-10T10:24:13.620Z,22.48
2023-04-10T10:26:22.312Z,22.80
2023-04-10T10:28:34.608Z,24.25
2023-04-10T10:30:42.256Z,22.00
2023-04-10T10:32:53.037Z,23.73
2023-04-10T10:35:00.301Z,23.50
2023-04-10T10:37:09.113Z,23.65
2023-04-10T10:39:30.637Z,23.80
2023-04-10T10:41:45.038Z,23.52
2023-04-10T10:43:58.061Z,23.63
2023-04-10T10:46:10.501Z,24.42
2023-04-10T10:48:19.488Z,23.83
2023-04-10T10:50:27.029Z,24.63
2023-04-10T10:52:45.226Z,23.92
2023-04-10T10:54:59.116Z,24.85
2023-04-10T10:57:10.228Z,24.13
2023-04-10T10:59:17.718Z,23.87
2023-04-10T11:01:25.161Z,24.00
2023-04-10T11:03:34.668Z,24.20
2023-04-10T11:05:55.292Z,25.33
2023-04-10T11:08:14.963Z,25.02
2023-04-10T11:10:42.574Z,25.23
2023-04-10T11:13:19.915Z,25.77
2023-04-10T11:15:28.483Z,23.52
2023-04-10T11:17:55.271Z,25.63
2023-04-10T11:20:05.163Z,25.17
2023-04-10T11:22:16.336Z,24.48
2023-04-10T11:26:41.166Z,25.75
2023-04-10T11:28:48.283Z,24.88
2023-04-10T11:30:55.151Z,24.50
2023-04-10T11:33:03.182Z,25.23
2023-04-10T11:35:14.373Z,24.35
2023-04-10T11:37:26.977Z,25.73
2023-04-10T11:39:35.186Z,25.05
2023-04-10T11:41:43.271Z,26.27
2023-04-10T11:43:55.603Z,26.35
2023-04-10T11:46:10.321Z,25.50
2023-04-10T11:48:19.846Z,26.33
2023-04-10T11:50:37.155Z,26.67
2023-04-10T11:52:44.546Z,25.95
2023-04-10T11:54:53.003Z,26.42
2023-04-10T11:57:02.571Z,26.20
2023-04-10T11:59:11.717Z,27.17
2023-04-10T12:01:18.835Z,28.02
2023-04-10T12:03:39.023Z,27.80
2023-04-10T12:05:52.241Z,28.05
2023-04-10T12:08:00.155Z,30.30
2023-04-10T12:10:08.152Z,30.92
2023-04-10T12:12:16.366Z,31.85
2023-04-10T12:14:24.466Z,32.08
2023-04-10T12:16:31.839Z,31.50
2023-04-10T12:18:39.045Z,31.20
2023-04-10T12:20:47.134Z,31.63
2023-04-10T12:22:57.606Z,31.30
2023-04-10T12:25:05.338Z,33.35
2023-04-10T12:27:18.460Z,32.67
2023-04-10T12:29:30.456Z,31.83
2023-04-10T12:31:38.688Z,30.80
2023-04-10T12:33:49.330Z,30.48
2023-04-10T12:35:57.095Z,30.25
2023-04-10T12:38:05.848Z,30.23
2023-04-10T12:40:14.207Z,31.27
2023-04-10T12:42:23.388Z,31.55
2023-04-10T12:44:30.255Z,43.50
2023-04-10T12:46:37.695Z,37.05
2023-04-10T12:48:44.878Z,35.03
2023-04-10T12:50:52.621Z,33.45
2023-04-10T12:53:10.098Z,32.00
2023-04-10T12:55:18.313Z,34.45
2023-04-10T12:57:31.013Z,32.97
2023-04-10T12:59:38.449Z,56.15
2023-04-10T13:01:45.401Z,72.57
2023-04-10T13:03:52.912Z,73.25
2023-04-10T13:06:00.357Z,52.45
2023-04-10T13:08:09.528Z,42.58
2023-04-10T13:10:16.361Z,44.58
2023-04-10T13:12:24.052Z,49.90
2023-04-10T13:14:30.916Z,43.08
2023-04-10T13:16:38.147Z,39.08
2023-04-10T13:18:45.229Z,40.38
2023-04-10T13:20:52.467Z,40.90
2023-04-10T13:22:59.647Z,37.53
2023-04-10T13:25:09.181Z,39.45
2023-04-10T13:27:16.772Z,41.60
2023-04-10T13:29:24.308Z,42.63
2023-04-10T13:31:31.543Z,42.95
2023-04-10T13:33:39.235Z,42.70
2023-04-10T13:35:46.414Z,40.78
2023-04-10T13:37:55.348Z,40.63
2023-04-10T13:40:02.217Z,40.45
2023-04-10T13:42:11.094Z,41.15
2023-04-10T13:44:17.968Z,41.88
2023-04-10T13:46:25.126Z,42.33
2023-04-10T13:48:54.450Z,41.50
2023-04-10T13:50:59.323Z,40.42
2023-04-10T13:53:08.399Z,40.78
2023-04-10T13:55:15.947Z,39.85
2023-04-10T13:57:24.796Z,41.30
2023-04-10T13:59:32.767Z,40.00
2023-04-10T14:01:39.618Z,39.88
2023-04-10T14:03:46.810Z,41.40
2023-04-10T14:05:53.795Z,42.50
2023-04-10T14:08:01.180Z,42.40
2023-04-10T14:10:08.940Z,43.03
2023-04-10T14:12:17.231Z,44.83
2023-04-10T14:14:26.617Z,43.78
2023-04-10T14:16:34.034Z,44.67
2023-04-10T14:18:41.261Z,42.58
2023-04-10T14:20:48.470Z,43.28
2023-04-10T14:22:55.491Z,43.03
2023-04-10T14:25:12.264Z,44.92
2023-04-10T14:27:20.201Z,44.83
2023-04-10T14:29:37.302Z,43.88
2023-04-10T14:31:56.845Z,44.03
2023-04-10T14:34:05.510Z,44.42
2023-04-10T14:36:13.151Z,41.67
2023-04-10T14:38:20.888Z,43.00
2023-04-10T14:40:28.732Z,44.45
2023-04-10T14:42:35.811Z,44.78
2023-04-10T14:44:44.366Z,43.40
2023-04-10T14:46:51.405Z,47.22
2023-04-10T14:48:58.365Z,51.60
2023-04-10T14:51:06.692Z,46.58
2023-04-10T14:53:13.921Z,45.10
2023-04-10T14:55:21.311Z,44.85
2023-04-10T14:57:29.158Z,46.83
2023-04-10T14:59:36.696Z,43.67
2023-04-10T15:01:45.362Z,43.25
2023-04-10T15:03:53.000Z,42.45
2023-04-10T15:06:03.521Z,42.10
2023-04-10T15:08:10.954Z,44.00
2023-04-10T15:10:17.931Z,44.00
2023-04-10T15:12:25.828Z,42.22
2023-04-10T15:14:32.721Z,42.85
2023-04-10T15:16:39.776Z,44.03
2023-04-10T15:18:51.061Z,41.50
2023-04-10T15:20:58.600Z,42.38
2023-04-10T15:23:05.535Z,42.63
2023-04-10T15:25:13.475Z,40.72
2023-04-10T15:27:21.689Z,42.95
2023-04-10T15:29:28.964Z,43.75
2023-04-10T15:31:36.104Z,41.78
2023-04-10T15:33:43.530Z,41.72
2023-04-10T15:35:53.799Z,41.22
2023-04-10T15:38:01.735Z,41.08
2023-04-10T15:40:09.540Z,41.17
2023-04-10T15:42:17.788Z,40.83
2023-04-10T15:44:24.613Z,41.78
2023-04-10T15:46:33.716Z,41.60
2023-04-10T15:48:40.834Z,40.47
2023-04-10T15:50:48.152Z,42.28
2023-04-10T15:52:56.818Z,40.08
2023-04-10T15:55:03.952Z,40.70
2023-04-10T15:57:10.828Z,41.13
2023-04-10T15:59:17.953Z,42.45
2023-04-10T16:01:24.979Z,40.50
2023-04-10T16:03:32.205Z,43.15
2023-04-10T16:05:39.092Z,42.80
2023-04-10T16:07:46.226Z,41.63
2023-04-10T16:09:56.218Z,41.85
2023-04-10T16:12:03.450Z,40.38
2023-04-10T16:14:10.797Z,38.95
2023-04-10T16:16:18.855Z,39.72
2023-04-10T16:18:25.662Z,39.78
2023-04-10T16:20:32.998Z,41.47
2023-04-10T16:22:40.033Z,40.22
2023-04-10T16:24:47.569Z,39.20
2023-04-10T16:26:57.605Z,39.28
2023-04-10T16:29:04.948Z,39.05
2023-04-10T16:31:12.169Z,39.05
2023-04-10T16:33:20.091Z,41.42
2023-04-10T16:35:26.941Z,40.10
2023-04-10T16:37:34.040Z,38.60
2023-04-10T16:39:40.909Z,39.55
2023-04-10T16:41:48.298Z,38.63
2023-04-10T16:43:57.268Z,39.35
2023-04-10T16:46:04.410Z,37.90
2023-04-10T16:48:11.605Z,42.40
2023-04-10T16:52:40.431Z,51.15
2023-04-10T16:54:47.712Z,48.80
2023-04-10T16:56:54.538Z,39.53
2023-04-10T16:59:03.394Z,42.78
2023-04-10T17:01:20.625Z,41.08
2023-04-10T17:03:28.020Z,39.03
2023-04-10T17:05:38.577Z,39.80
2023-04-10T17:07:45.965Z,42.83
2023-04-10T17:09:53.296Z,41.40
2023-04-10T17:12:00.809Z,42.13
2023-04-10T17:14:11.142Z,42.17
2023-04-10T17:16:18.688Z,38.97
2023-04-10T17:18:25.967Z,39.50
2023-04-10T17:20:33.609Z,41.15
2023-04-10T17:22:41.660Z,41.33
2023-04-10T17:24:48.896Z,41.42
2023-04-10T17:26:57.820Z,40.85
2023-04-10T17:29:05.409Z,44.42
2023-04-10T17:31:14.392Z,45.30
2023-04-10T17:33:22.844Z,45.92
2023-04-10T17:35:29.978Z,47.08
2023-04-10T17:37:37.180Z,47.45
2023-04-10T17:39:44.080Z,42.38
2023-04-10T17:41:51.311Z,44.08
2023-04-10T17:43:58.446Z,42.95
2023-04-10T17:46:06.101Z,42.92
2023-04-10T17:48:14.871Z,44.60
2023-04-10T17:50:22.395Z,43.25
2023-04-10T17:52:29.576Z,41.53
2023-04-10T17:54:38.294Z,41.58
2023-04-10T17:56:45.319Z,43.47
2023-04-10T17:58:52.673Z,41.13
2023-04-10T18:00:59.641Z,42.20
2023-04-10T18:03:06.956Z,42.17
2023-04-10T18:05:15.998Z,44.05
2023-04-10T18:07:23.587Z,43.78
2023-04-10T18:09:30.719Z,43.50
2023-04-10T18:11:38.149Z,42.22
2023-04-10T18:13:44.974Z,42.78
2023-04-10T18:15:52.105Z,43.05
2023-04-10T18:17:59.398Z,46.80
2023-04-10T18:20:06.932Z,46.05
2023-04-10T18:22:15.498Z,41.22
2023-04-10T18:24:22.877Z,39.53
2023-04-10T18:26:32.772Z,39.83
2023-04-10T18:28:40.568Z,39.50
2023-04-10T18:30:47.810Z,38.58
2023-04-10T18:32:55.240Z,38.95
2023-04-10T18:35:04.628Z,39.95
2023-04-10T18:37:13.601Z,38.38
2023-04-10T18:39:20.781Z,39.03
2023-04-10T18:41:28.119Z,39.67
2023-04-10T18:43:34.990Z,38.53
2023-04-10T18:45:45.468Z,39.00
2023-04-10T18:47:52.315Z,41.85
2023-04-10T18:49:59.355Z,44.47
2023-04-10T18:52:06.649Z,44.22
2023-04-10T18:54:15.713Z,45.67
2023-04-10T18:56:23.076Z,46.90
2023-04-10T18:58:31.048Z,45.25
2023-04-10T19:00:37.887Z,45.58
2023-04-10T19:02:45.367Z,45.05
2023-04-10T19:04:55.219Z,44.78
2023-04-10T19:07:02.638Z,43.05
2023-04-10T19:09:10.250Z,42.38
2023-04-10T19:11:19.573Z,42.58
2023-04-10T19:13:26.755Z,43.67
2023-04-10T19:15:33.634Z,41.63
2023-04-10T19:17:40.754Z,42.17
2023-04-10T19:19:47.984Z,42.15
2023-04-10T19:21:55.523Z,42.33
2023-04-10T19:24:02.345Z,40.88
2023-04-10T19:26:10.808Z,42.60
2023-04-10T19:28:19.370Z,43.45
2023-04-10T19:30:27.119Z,43.60
2023-04-10T19:32:34.259Z,42.20
2023-04-10T19:34:41.527Z,42.47
2023-04-10T19:36:48.458Z,43.00
2023-04-10T19:38:58.289Z,40.40
2023-04-10T19:41:05.635Z,42.67
2023-04-10T19:43:13.442Z,40.92
2023-04-10T19:45:24.657Z,41.35
2023-04-10T19:47:32.146Z,40.15
2023-04-10T19:49:39.275Z,43.08
2023-04-10T19:51:46.463Z,41.17
2023-04-10T19:53:54.024Z,42.33
2023-04-10T19:56:01.970Z,43.13
2023-04-10T19:58:13.452Z,40.13
2023-04-10T20:00:30.031Z,40.17
2023-04-10T20:02:37.468Z,41.70
2023-04-10T20:04:47.229Z,40.30
2023-04-10T20:06:55.821Z,44.78
2023-04-10T20:09:03.259Z,43.58
2023-04-10T20:11:10.530Z,42.95
2023-04-10T20:13:18.141Z,42.50
2023-04-10T20:15:24.955Z,43.42
2023-04-10T20:17:33.952Z,44.85
2023-04-10T20:19:41.731Z,43.55
2023-04-10T20:21:49.063Z,41.40
2023-04-10T20:23:58.446Z,43.95
2023-04-10T20:26:05.318Z,44.00
2023-04-10T20:28:12.196Z,45.85
2023-04-10T20:30:19.224Z,41.30
2023-04-10T20:32:26.455Z,43.22
2023-04-10T20:34:35.647Z,43.47
2023-04-10T20:36:42.813Z,43.33
2023-04-10T20:38:50.101Z,42.97
2023-04-10T20:40:57.542Z,45.40
2023-04-10T20:43:04.666Z,42.63
2023-04-10T20:45:12.717Z,41.22
2023-04-10T20:47:20.051Z,42.97
2023-04-10T20:49:28.618Z,43.30
2023-04-10T20:51:38.422Z,42.13
2023-04-10T20:53:45.334Z,42.75
2023-04-10T20:55:55.750Z,42.20
2023-04-10T20:58:02.872Z,42.78
2023-04-10T21:00:11.595Z,42.63
2023-04-10T21:02:19.512Z,42.33
2023-04-10T21:04:26.875Z,44.92
2023-04-10T21:06:36.875Z,45.00
2023-04-10T21:08:44.004Z,42.58
2023-04-10T21:10:51.188Z,43.55
2023-04-10T21:12:58.677Z,44.42
2023-04-10T21:15:05.809Z,42.78
2023-04-10T21:17:13.297Z,42.92
2023-04-10T21:19:20.173Z,42.88
2023-04-10T21:21:27.557Z,42.88
2023-04-10T21:23:36.332Z,44.67
2023-04-10T21:25:43.665Z,43.83
2023-04-10T21:27:50.794Z,43.60
2023-04-10T21:29:58.646Z,41.28
2023-04-10T21:32:05.962Z,42.30
2023-04-10T21:34:13.368Z,40.70
2023-04-10T21:36:20.441Z,42.50
2023-04-10T21:38:27.525Z,43.75
2023-04-10T21:40:36.853Z,42.42
2023-04-10T21:42:44.150Z,44.45
2023-04-10T21:44:50.960Z,44.17
2023-04-10T21:46:58.242Z,43.90
2023-04-10T21:49:05.170Z,43.30
2023-04-10T21:51:12.709Z,44.13
2023-04-10T21:53:19.997Z,41.70
2023-04-10T21:55:27.224Z,45.90
2023-04-10T21:57:35.839Z,45.58
2023-04-10T21:59:43.173Z,47.15
2023-04-10T22:01:50.096Z,46.35
2023-04-10T22:03:58.197Z,43.47
2023-04-10T22:06:05.128Z,43.50
2023-04-10T22:08:12.374Z,43.10
2023-04-10T22:10:19.804Z,43.90
2023-04-10T22:12:27.237Z,42.30
2023-04-10T22:14:36.109Z,43.90
2023-04-10T22:16:43.231Z,44.00
2023-04-10T22:18:50.166Z,44.63
2023-04-10T22:20:57.402Z,45.95
2023-04-10T22:23:05.051Z,47.70
2023-04-10T22:25:12.650Z,47.67
2023-04-10T22:27:19.764Z,47.08
2023-04-10T22:29:27.200Z,48.08
2023-04-10T22:31:35.870Z,45.88
2023-04-10T22:33:43.099Z,44.67
2023-04-10T22:35:50.060Z,43.33
2023-04-10T22:37:57.925Z,43.97
2023-04-10T22:40:04.796Z,43.83
2023-04-10T22:42:12.823Z,43.92
2023-04-10T22:44:19.986Z,43.15
2023-04-10T22:46:27.147Z,44.65
2023-04-10T22:48:36.416Z,47.83
2023-04-10T22:50:43.834Z,46.13
2023-04-10T22:52:51.017Z,46.78
2023-04-10T22:54:58.608Z,46.08
2023-04-10T22:57:05.987Z,46.95
2023-04-10T22:59:13.476Z,45.42
2023-04-10T23:01:20.780Z,46.47
2023-04-10T23:03:28.543Z,45.70
2023-04-10T23:05:37.119Z,46.67
2023-04-10T23:07:44.202Z,48.72
2023-04-10T23:09:51.073Z,45.95
2023-04-10T23:11:58.204Z,46.55
2023-04-10T23:14:05.336Z,43.90
2023-04-10T23:16:13.983Z,44.22
2023-04-10T23:18:24.104Z,45.03
2023-04-10T23:20:31.542Z,41.40
2023-04-10T23:22:40.159Z,41.83
2023-04-10T23:24:47.544Z,41.88
2023-04-10T23:26:54.686Z,42.67
2023-04-10T23:29:02.275Z,42.42
2023-04-10T23:31:10.012Z,43.58
2023-04-10T23:33:17.345Z,43.15
2023-04-10T23:35:24.722Z,41.55
2023-04-10T23:37:33.090Z,39.53
2023-04-10T23:39:42.119Z,38.45
2023-04-10T23:41:49.348Z,38.08
2023-04-10T23:43:56.428Z,36.05
2023-04-10T23:46:03.918Z,34.55
2023-04-10T23:48:13.100Z,32.33
2023-04-10T23:50:20.603Z,30.38
2023-04-10T23:52:27.766Z,28.20
2023-04-10T23:54:34.949Z,27.85
2023-04-10T23:56:44.174Z,30.23
2023-04-10T23:58:51.407Z,28.40
